sensor_id;sensor_type;location;lat;lon;timestamp;pressure;altitude;pressure_sealevel;temperature;humidity
13594;BME280;6449;47.666;9.160;2023-02-04T00:03:34;98399.19;;;6.47;100.00
13594;BME280;6449;47.666;9.160;2023-02-04T00:08:28;98387.53;;;6.34;100.00
13594;BME280;6449;47.666;9.160;2023-02-04T00:13:21;98390.19;;;6.06;100.00
13594;BME280;6449;47.666;9.160;2023-02-04T00:18:16;98374.00;;;5.98;100.00
13594;BME280;6449;47.666;9.160;2023-02-04T00:23:10;98353.91;;;6.01;100.00
13594;BME280;6449;47.666;9.160;2023-02-04T00:28:04;98359.09;;;6.03;100.00
13594;BME280;6449;47.666;9.160;2023-02-04T00:32:57;98348.34;;;6.12;100.00
13594;BME280;6449;47.666;9.160;2023-02-04T00:37:52;98359.78;;;6.08;100.00
13594;BME280;6449;47.666;9.160;2023-02-04T00:42:46;98371.97;;;5.79;100.00
13594;BME280;6449;47.666;9.160;2023-02-04T00:47:39;98384.69;;;5.89;100.00
13594;BME280;6449;47.666;9.160;2023-02-04T00:52:33;98382.28;;;5.83;100.00
13594;BME280;6449;47.666;9.160;2023-02-04T00:57:28;98369.97;;;5.88;100.00
13594;BME280;6449;47.666;9.160;2023-02-04T01:02:21;98363.94;;;5.86;100.00
13594;BME280;6449;47.666;9.160;2023-02-04T01:07:14;98353.50;;;5.87;100.00
13594;BME280;6449;47.666;9.160;2023-02-04T01:12:09;98377.09;;;5.83;100.00
13594;BME280;6449;47.666;9.160;2023-02-04T01:17:03;98374.38;;;5.86;100.00
13594;BME280;6449;47.666;9.160;2023-02-04T01:21:57;98375.69;;;5.99;100.00
13594;BME280;6449;47.666;9.160;2023-02-04T01:26:50;98372.47;;;5.91;100.00
13594;BME280;6449;47.666;9.160;2023-02-04T01:31:43;98364.56;;;5.67;100.00
13594;BME280;6449;47.666;9.160;2023-02-04T01:36:38;98371.75;;;5.86;100.00
13594;BME280;6449;47.666;9.160;2023-02-04T01:41:32;98364.66;;;5.64;100.00
13594;BME280;6449;47.666;9.160;2023-02-04T01:46:26;98368.63;;;5.76;100.00
13594;BME280;6449;47.666;9.160;2023-02-04T01:51:26;98357.38;;;5.75;100.00
13594;BME280;6449;47.666;9.160;2023-02-04T01:56:25;98375.41;;;5.80;100.00
13594;BME280;6449;47.666;9.160;2023-02-04T02:01:35;98361.91;;;5.69;100.00
13594;BME280;6449;47.666;9.160;2023-02-04T02:06:29;98360.63;;;5.82;100.00
13594;BME280;6449;47.666;9.160;2023-02-04T02:11:24;98365.97;;;5.77;100.00
13594;BME280;6449;47.666;9.160;2023-02-04T02:16:18;98372.63;;;5.86;100.00
13594;BME280;6449;47.666;9.160;2023-02-04T02:21:13;98351.34;;;5.73;100.00
13594;BME280;6449;47.666;9.160;2023-02-04T02:26:13;98357.69;;;5.93;100.00
13594;BME280;6449;47.666;9.160;2023-02-04T02:31:08;98357.75;;;5.91;100.00
13594;BME280;6449;47.666;9.160;2023-02-04T02:36:03;98362.00;;;5.94;100.00
13594;BME280;6449;47.666;9.160;2023-02-04T02:40:56;98361.94;;;5.95;100.00
13594;BME280;6449;47.666;9.160;2023-02-04T02:45:53;98370.44;;;6.00;100.00
13594;BME280;6449;47.666;9.160;2023-02-04T02:50:48;98375.84;;;5.94;100.00
13594;BME280;6449;47.666;9.160;2023-02-04T02:55:42;98373.50;;;5.87;100.00
13594;BME280;6449;47.666;9.160;2023-02-04T03:00:36;98373.72;;;5.79;100.00
13594;BME280;6449;47.666;9.160;2023-02-04T03:05:36;98364.06;;;5.83;100.00
13594;BME280;6449;47.666;9.160;2023-02-04T03:10:32;98367.19;;;5.94;100.00
13594;BME280;6449;47.666;9.160;2023-02-04T03:15:26;98368.84;;;5.96;100.00
13594;BME280;6449;47.666;9.160;2023-02-04T03:20:19;98380.47;;;6.11;100.00
13594;BME280;6449;47.666;9.160;2023-02-04T03:25:14;98375.75;;;5.97;100.00
13594;BME280;6449;47.666;9.160;2023-02-04T03:30:09;98374.28;;;5.89;100.00
13594;BME280;6449;47.666;9.160;2023-02-04T03:35:03;98370.03;;;5.86;100.00
13594;BME280;6449;47.666;9.160;2023-02-04T03:39:56;98367.59;;;5.82;100.00
13594;BME280;6449;47.666;9.160;2023-02-04T03:44:51;98366.06;;;6.02;100.00
13594;BME280;6449;47.666;9.160;2023-02-04T03:49:44;98397.84;;;5.84;100.00
13594;BME280;6449;47.666;9.160;2023-02-04T03:54:38;98388.63;;;6.02;100.00
13594;BME280;6449;47.666;9.160;2023-02-04T03:59:34;98391.09;;;6.05;100.00
13594;BME280;6449;47.666;9.160;2023-02-04T04:04:29;98400.41;;;6.12;100.00
13594;BME280;6449;47.666;9.160;2023-02-04T04:09:22;98393.63;;;6.08;100.00
13594;BME280;6449;47.666;9.160;2023-02-04T04:14:15;98382.84;;;6.19;100.00
13594;BME280;6449;47.666;9.160;2023-02-04T04:19:09;98394.09;;;6.19;100.00
13594;BME280;6449;47.666;9.160;2023-02-04T04:24:04;98395.19;;;6.12;100.00
13594;BME280;6449;47.666;9.160;2023-02-04T04:28:58;98396.38;;;6.03;100.00
13594;BME280;6449;47.666;9.160;2023-02-04T04:33:51;98394.09;;;6.19;100.00
13594;BME280;6449;47.666;9.160;2023-02-04T04:38:45;98407.22;;;6.16;100.00
13594;BME280;6449;47.666;9.160;2023-02-04T04:43:39;98399.19;;;6.22;100.00
13594;BME280;6449;47.666;9.160;2023-02-04T04:48:33;98408.66;;;6.25;100.00
13594;BME280;6449;47.666;9.160;2023-02-04T04:53:26;98410.31;;;6.27;100.00
13594;BME280;6449;47.666;9.160;2023-02-04T04:58:19;98408.91;;;6.17;100.00
13594;BME280;6449;47.666;9.160;2023-02-04T05:03:14;98402.47;;;6.29;100.00
13594;BME280;6449;47.666;9.160;2023-02-04T05:08:08;98406.00;;;6.26;100.00
13594;BME280;6449;47.666;9.160;2023-02-04T05:13:04;98396.69;;;6.44;100.00
13594;BME280;6449;47.666;9.160;2023-02-04T05:17:58;98412.50;;;6.40;100.00
13594;BME280;6449;47.666;9.160;2023-02-04T05:22:53;98422.59;;;6.24;100.00
13594;BME280;6449;47.666;9.160;2023-02-04T05:27:47;98424.44;;;6.20;100.00
13594;BME280;6449;47.666;9.160;2023-02-04T05:32:40;98422.69;;;6.21;100.00
13594;BME280;6449;47.666;9.160;2023-02-04T05:37:34;98426.78;;;6.28;100.00
13594;BME280;6449;47.666;9.160;2023-02-04T05:42:28;98430.56;;;6.19;100.00
13594;BME280;6449;47.666;9.160;2023-02-04T05:47:22;98430.78;;;6.38;100.00
13594;BME280;6449;47.666;9.160;2023-02-04T05:52:15;98430.06;;;6.33;100.00
13594;BME280;6449;47.666;9.160;2023-02-04T05:57:09;98437.25;;;6.26;100.00
13594;BME280;6449;47.666;9.160;2023-02-04T06:02:03;98429.56;;;6.23;100.00
13594;BME280;6449;47.666;9.160;2023-02-04T06:06:57;98433.53;;;6.34;100.00
13594;BME280;6449;47.666;9.160;2023-02-04T06:11:51;98440.56;;;6.32;100.00
13594;BME280;6449;47.666;9.160;2023-02-04T06:16:45;98450.34;;;6.25;100.00
13594;BME280;6449;47.666;9.160;2023-02-04T06:21:40;98450.28;;;6.26;100.00
13594;BME280;6449;47.666;9.160;2023-02-04T06:26:33;98453.78;;;6.25;100.00
13594;BME280;6449;47.666;9.160;2023-02-04T06:31:27;98454.69;;;6.24;100.00
13594;BME280;6449;47.666;9.160;2023-02-04T06:36:20;98444.50;;;6.17;100.00
13594;BME280;6449;47.666;9.160;2023-02-04T06:41:15;98438.22;;;6.24;100.00
13594;BME280;6449;47.666;9.160;2023-02-04T06:46:09;98456.91;;;6.10;100.00
13594;BME280;6449;47.666;9.160;2023-02-04T06:51:08;98474.00;;;6.17;100.00
13594;BME280;6449;47.666;9.160;2023-02-04T06:56:03;98465.75;;;6.04;100.00
13594;BME280;6449;47.666;9.160;2023-02-04T07:00:59;98476.94;;;6.08;100.00
13594;BME280;6449;47.666;9.160;2023-02-04T07:05:52;98476.25;;;6.28;100.00
13594;BME280;6449;47.666;9.160;2023-02-04T07:10:46;98478.22;;;6.21;100.00
13594;BME280;6449;47.666;9.160;2023-02-04T07:15:39;98472.56;;;6.09;100.00
13594;BME280;6449;47.666;9.160;2023-02-04T07:20:34;98480.41;;;6.07;100.00
13594;BME280;6449;47.666;9.160;2023-02-04T07:25:27;98487.34;;;6.08;100.00
13594;BME280;6449;47.666;9.160;2023-02-04T07:30:21;98491.88;;;6.01;100.00
13594;BME280;6449;47.666;9.160;2023-02-04T07:35:14;98490.94;;;6.04;100.00
13594;BME280;6449;47.666;9.160;2023-02-04T07:40:11;98493.69;;;5.99;100.00
13594;BME280;6449;47.666;9.160;2023-02-04T07:45:06;98496.44;;;6.21;100.00
13594;BME280;6449;47.666;9.160;2023-02-04T07:49:59;98495.00;;;6.13;100.00
13594;BME280;6449;47.666;9.160;2023-02-04T07:54:53;98504.72;;;6.08;100.00
13594;BME280;6449;47.666;9.160;2023-02-04T07:59:47;98500.38;;;6.08;100.00
13594;BME280;6449;47.666;9.160;2023-02-04T08:04:41;98508.19;;;6.07;100.00
13594;BME280;6449;47.666;9.160;2023-02-04T08:09:34;98527.19;;;6.10;100.00
13594;BME280;6449;47.666;9.160;2023-02-04T08:14:29;98521.97;;;6.10;100.00
13594;BME280;6449;47.666;9.160;2023-02-04T08:19:24;98515.78;;;6.14;100.00
13594;BME280;6449;47.666;9.160;2023-02-04T08:24:17;98527.81;;;6.18;100.00
13594;BME280;6449;47.666;9.160;2023-02-04T08:29:11;98527.84;;;6.17;100.00
13594;BME280;6449;47.666;9.160;2023-02-04T08:34:05;98529.59;;;6.16;100.00
13594;BME280;6449;47.666;9.160;2023-02-04T08:39:00;98528.59;;;6.20;100.00
13594;BME280;6449;47.666;9.160;2023-02-04T08:43:53;98527.91;;;6.15;100.00
13594;BME280;6449;47.666;9.160;2023-02-04T08:48:47;98537.53;;;6.13;100.00
13594;BME280;6449;47.666;9.160;2023-02-04T08:53:41;98532.25;;;6.15;100.00
13594;BME280;6449;47.666;9.160;2023-02-04T08:58:36;98531.22;;;6.20;100.00
13594;BME280;6449;47.666;9.160;2023-02-04T09:03:30;98530.41;;;6.18;100.00
13594;BME280;6449;47.666;9.160;2023-02-04T09:08:24;98535.81;;;6.39;100.00
13594;BME280;6449;47.666;9.160;2023-02-04T09:13:17;98547.63;;;5.94;100.00
13594;BME280;6449;47.666;9.160;2023-02-04T09:18:12;98542.94;;;6.06;100.00
13594;BME280;6449;47.666;9.160;2023-02-04T09:23:08;98543.53;;;6.15;100.00
13594;BME280;6449;47.666;9.160;2023-02-04T09:28:03;98545.34;;;6.13;100.00
13594;BME280;6449;47.666;9.160;2023-02-04T09:32:57;98557.53;;;6.11;100.00
13594;BME280;6449;47.666;9.160;2023-02-04T09:37:52;98561.56;;;6.21;100.00
13594;BME280;6449;47.666;9.160;2023-02-04T09:42:46;98560.56;;;6.25;100.00
13594;BME280;6449;47.666;9.160;2023-02-04T09:47:41;98553.53;;;6.27;100.00
13594;BME280;6449;47.666;9.160;2023-02-04T09:52:34;98563.94;;;6.27;100.00
13594;BME280;6449;47.666;9.160;2023-02-04T09:57:29;98555.94;;;6.34;100.00
13594;BME280;6449;47.666;9.160;2023-02-04T10:02:25;98563.09;;;6.27;100.00
13594;BME280;6449;47.666;9.160;2023-02-04T10:07:21;98561.97;;;6.36;100.00
13594;BME280;6449;47.666;9.160;2023-02-04T10:12:16;98563.47;;;6.43;100.00
13594;BME280;6449;47.666;9.160;2023-02-04T10:17:16;98567.41;;;6.56;100.00
13594;BME280;6449;47.666;9.160;2023-02-04T10:22:16;98568.44;;;6.50;100.00
13594;BME280;6449;47.666;9.160;2023-02-04T10:27:12;98575.50;;;6.47;100.00
13594;BME280;6449;47.666;9.160;2023-02-04T10:32:27;98559.59;;;6.54;100.00
13594;BME280;6449;47.666;9.160;2023-02-04T10:37:21;98559.94;;;6.70;100.00
13594;BME280;6449;47.666;9.160;2023-02-04T10:42:21;98570.06;;;6.79;100.00
13594;BME280;6449;47.666;9.160;2023-02-04T10:47:18;98561.50;;;6.76;100.00
13594;BME280;6449;47.666;9.160;2023-02-04T10:52:32;98569.63;;;6.93;100.00
13594;BME280;6449;47.666;9.160;2023-02-04T10:57:31;98565.81;;;7.02;100.00
13594;BME280;6449;47.666;9.160;2023-02-04T11:02:40;98558.75;;;7.05;100.00
13594;BME280;6449;47.666;9.160;2023-02-04T11:07:40;98554.84;;;7.17;100.00
13594;BME280;6449;47.666;9.160;2023-02-04T11:12:46;98552.25;;;7.17;100.00
13594;BME280;6449;47.666;9.160;2023-02-04T11:17:41;98554.53;;;7.26;100.00
13594;BME280;6449;47.666;9.160;2023-02-04T11:22:43;98562.75;;;7.39;100.00
13594;BME280;6449;47.666;9.160;2023-02-04T11:27:39;98585.84;;;7.50;100.00
13594;BME280;6449;47.666;9.160;2023-02-04T11:32:35;98594.72;;;7.46;100.00
13594;BME280;6449;47.666;9.160;2023-02-04T11:37:44;98586.53;;;7.55;100.00
13594;BME280;6449;47.666;9.160;2023-02-04T11:42:40;98587.75;;;7.46;100.00
13594;BME280;6449;47.666;9.160;2023-02-04T11:47:35;98587.34;;;7.57;100.00
13594;BME280;6449;47.666;9.160;2023-02-04T11:52:29;98613.09;;;7.43;100.00
13594;BME280;6449;47.666;9.160;2023-02-04T11:57:25;98610.63;;;7.63;100.00
13594;BME280;6449;47.666;9.160;2023-02-04T12:02:21;98613.91;;;7.68;100.00
13594;BME280;6449;47.666;9.160;2023-02-04T12:07:27;98621.22;;;7.58;100.00
13594;BME280;6449;47.666;9.160;2023-02-04T12:12:30;98615.97;;;7.35;100.00
13594;BME280;6449;47.666;9.160;2023-02-04T12:17:33;98613.94;;;7.18;100.00
13594;BME280;6449;47.666;9.160;2023-02-04T12:22:26;98614.47;;;7.03;100.00
13594;BME280;6449;47.666;9.160;2023-02-04T12:27:24;98614.56;;;7.00;100.00
13594;BME280;6449;47.666;9.160;2023-02-04T12:32:20;98620.34;;;7.09;100.00
13594;BME280;6449;47.666;9.160;2023-02-04T12:37:17;98613.66;;;7.01;100.00
13594;BME280;6449;47.666;9.160;2023-02-04T12:42:14;98611.81;;;7.04;100.00
13594;BME280;6449;47.666;9.160;2023-02-04T12:47:08;98616.66;;;7.15;100.00
13594;BME280;6449;47.666;9.160;2023-02-04T12:52:17;98627.66;;;7.23;100.00
13594;BME280;6449;47.666;9.160;2023-02-04T12:57:45;98636.03;;;7.33;100.00
13594;BME280;6449;47.666;9.160;2023-02-04T13:02:40;98639.63;;;7.30;100.00
13594;BME280;6449;47.666;9.160;2023-02-04T13:07:33;98640.47;;;7.31;100.00
13594;BME280;6449;47.666;9.160;2023-02-04T13:12:27;98643.16;;;7.53;100.00
13594;BME280;6449;47.666;9.160;2023-02-04T13:17:20;98644.88;;;7.54;100.00
13594;BME280;6449;47.666;9.160;2023-02-04T13:22:15;98660.63;;;7.51;100.00
13594;BME280;6449;47.666;9.160;2023-02-04T13:27:11;98663.91;;;7.56;100.00
13594;BME280;6449;47.666;9.160;2023-02-04T13:32:04;98675.88;;;7.63;100.00
13594;BME280;6449;47.666;9.160;2023-02-04T13:36:58;98681.34;;;7.55;100.00
13594;BME280;6449;47.666;9.160;2023-02-04T13:41:52;98687.53;;;7.53;100.00
13594;BME280;6449;47.666;9.160;2023-02-04T13:46:46;98681.09;;;7.63;100.00
13594;BME280;6449;47.666;9.160;2023-02-04T13:51:40;98693.78;;;7.72;100.00
13594;BME280;6449;47.666;9.160;2023-02-04T13:56:33;98696.22;;;7.78;100.00
13594;BME280;6449;47.666;9.160;2023-02-04T14:01:35;98701.38;;;7.80;100.00
13594;BME280;6449;47.666;9.160;2023-02-04T14:06:28;98704.25;;;7.72;100.00
13594;BME280;6449;47.666;9.160;2023-02-04T14:11:25;98707.19;;;7.63;100.00
13594;BME280;6449;47.666;9.160;2023-02-04T14:16:21;98707.59;;;7.51;100.00
13594;BME280;6449;47.666;9.160;2023-02-04T14:21:16;98710.41;;;7.45;100.00
13594;BME280;6449;47.666;9.160;2023-02-04T14:26:11;98711.31;;;7.44;100.00
13594;BME280;6449;47.666;9.160;2023-02-04T14:31:05;98716.34;;;7.50;100.00
13594;BME280;6449;47.666;9.160;2023-02-04T14:35:58;98723.47;;;7.45;100.00
13594;BME280;6449;47.666;9.160;2023-02-04T14:40:53;98717.25;;;7.49;100.00
13594;BME280;6449;47.666;9.160;2023-02-04T14:45:46;98708.66;;;7.45;100.00
13594;BME280;6449;47.666;9.160;2023-02-04T14:50:40;98711.44;;;7.41;100.00
13594;BME280;6449;47.666;9.160;2023-02-04T14:55:35;98729.00;;;7.35;100.00
13594;BME280;6449;47.666;9.160;2023-02-04T15:00:30;98725.50;;;7.37;100.00
13594;BME280;6449;47.666;9.160;2023-02-04T15:05:25;98731.84;;;7.28;100.00
13594;BME280;6449;47.666;9.160;2023-02-04T15:10:22;98731.72;;;7.32;100.00
13594;BME280;6449;47.666;9.160;2023-02-04T15:25:32;98736.22;;;7.27;100.00
13594;BME280;6449;47.666;9.160;2023-02-04T15:31:05;98737.13;;;7.26;100.00
13594;BME280;6449;47.666;9.160;2023-02-04T15:36:02;98739.13;;;7.18;100.00
13594;BME280;6449;47.666;9.160;2023-02-04T15:40:59;98736.63;;;7.15;100.00
13594;BME280;6449;47.666;9.160;2023-02-04T15:45:57;98739.59;;;7.04;100.00
13594;BME280;6449;47.666;9.160;2023-02-04T15:50:50;98745.25;;;7.17;100.00
13594;BME280;6449;47.666;9.160;2023-02-04T15:55:44;98747.66;;;7.23;100.00
13594;BME280;6449;47.666;9.160;2023-02-04T16:00:42;98751.53;;;7.12;100.00
13594;BME280;6449;47.666;9.160;2023-02-04T16:05:35;98758.06;;;6.97;100.00
13594;BME280;6449;47.666;9.160;2023-02-04T16:10:29;98752.06;;;6.95;100.00
13594;BME280;6449;47.666;9.160;2023-02-04T16:15:26;98753.06;;;6.91;100.00
13594;BME280;6449;47.666;9.160;2023-02-04T16:20:38;98758.19;;;6.94;100.00
13594;BME280;6449;47.666;9.160;2023-02-04T16:25:32;98765.19;;;6.92;100.00
13594;BME280;6449;47.666;9.160;2023-02-04T16:30:26;98774.03;;;6.88;100.00
13594;BME280;6449;47.666;9.160;2023-02-04T16:35:19;98776.72;;;6.85;100.00
13594;BME280;6449;47.666;9.160;2023-02-04T16:40:17;98777.69;;;6.80;100.00
13594;BME280;6449;47.666;9.160;2023-02-04T16:45:11;98787.41;;;6.75;100.00
13594;BME280;6449;47.666;9.160;2023-02-04T16:50:05;98783.88;;;6.76;100.00
13594;BME280;6449;47.666;9.160;2023-02-04T16:54:59;98785.66;;;6.76;100.00
13594;BME280;6449;47.666;9.160;2023-02-04T16:59:54;98789.09;;;6.76;100.00
13594;BME280;6449;47.666;9.160;2023-02-04T17:04:47;98800.53;;;6.72;100.00
13594;BME280;6449;47.666;9.160;2023-02-04T17:09:41;98802.78;;;6.85;100.00
13594;BME280;6449;47.666;9.160;2023-02-04T17:14:34;98805.44;;;6.83;100.00
13594;BME280;6449;47.666;9.160;2023-02-04T17:19:31;98802.91;;;6.80;100.00
13594;BME280;6449;47.666;9.160;2023-02-04T17:24:24;98804.94;;;6.70;100.00
13594;BME280;6449;47.666;9.160;2023-02-04T17:29:18;98795.53;;;6.66;100.00
13594;BME280;6449;47.666;9.160;2023-02-04T17:34:12;98795.59;;;6.63;100.00
13594;BME280;6449;47.666;9.160;2023-02-04T17:39:07;98793.13;;;6.59;100.00
13594;BME280;6449;47.666;9.160;2023-02-04T17:44:01;98791.53;;;6.53;100.00
13594;BME280;6449;47.666;9.160;2023-02-04T17:48:55;98796.81;;;6.51;100.00
13594;BME280;6449;47.666;9.160;2023-02-04T17:53:52;98796.03;;;6.48;100.00
13594;BME280;6449;47.666;9.160;2023-02-04T17:58:47;98801.97;;;6.53;100.00
13594;BME280;6449;47.666;9.160;2023-02-04T18:03:41;98814.69;;;6.34;100.00
13594;BME280;6449;47.666;9.160;2023-02-04T18:08:39;98819.28;;;6.24;100.00
13594;BME280;6449;47.666;9.160;2023-02-04T18:13:33;98826.38;;;6.19;100.00
13594;BME280;6449;47.666;9.160;2023-02-04T18:18:38;98820.50;;;6.11;100.00
13594;BME280;6449;47.666;9.160;2023-02-04T18:23:32;98810.09;;;6.11;100.00
13594;BME280;6449;47.666;9.160;2023-02-04T18:28:36;98814.66;;;6.03;100.00
13594;BME280;6449;47.666;9.160;2023-02-04T18:33:34;98819.03;;;6.01;100.00
13594;BME280;6449;47.666;9.160;2023-02-04T18:38:38;98817.38;;;5.98;100.00
13594;BME280;6449;47.666;9.160;2023-02-04T18:43:39;98820.03;;;5.97;100.00
13594;BME280;6449;47.666;9.160;2023-02-04T18:49:06;98832.22;;;5.95;100.00
13594;BME280;6449;47.666;9.160;2023-02-04T18:54:47;98830.44;;;5.97;100.00
13594;BME280;6449;47.666;9.160;2023-02-04T18:59:46;98827.91;;;5.94;100.00
13594;BME280;6449;47.666;9.160;2023-02-04T19:04:41;98827.09;;;5.92;100.00
13594;BME280;6449;47.666;9.160;2023-02-04T19:09:36;98834.38;;;5.77;100.00
13594;BME280;6449;47.666;9.160;2023-02-04T19:43:18;98819.38;;;5.17;100.00
13594;BME280;6449;47.666;9.160;2023-02-04T19:55:31;98819.72;;;5.00;100.00
13594;BME280;6449;47.666;9.160;2023-02-04T20:01:11;98805.06;;;4.98;100.00
13594;BME280;6449;47.666;9.160;2023-02-04T20:06:28;98805.69;;;5.09;100.00
13594;BME280;6449;47.666;9.160;2023-02-04T20:12:00;98807.03;;;5.25;100.00
13594;BME280;6449;47.666;9.160;2023-02-04T20:17:57;98806.88;;;5.32;100.00
13594;BME280;6449;47.666;9.160;2023-02-04T20:29:41;98832.63;;;5.05;100.00
13594;BME280;6449;47.666;9.160;2023-02-04T20:34:45;98837.31;;;4.89;100.00
13594;BME280;6449;47.666;9.160;2023-02-04T20:39:43;98839.94;;;4.88;100.00
13594;BME280;6449;47.666;9.160;2023-02-04T20:45:07;98844.34;;;4.84;100.00
13594;BME280;6449;47.666;9.160;2023-02-04T20:50:39;98855.69;;;4.82;100.00
13594;BME280;6449;47.666;9.160;2023-02-04T20:55:34;98866.38;;;4.66;100.00
13594;BME280;6449;47.666;9.160;2023-02-04T21:00:40;98856.84;;;4.67;100.00
13594;BME280;6449;47.666;9.160;2023-02-04T21:05:52;98855.09;;;4.69;100.00
13594;BME280;6449;47.666;9.160;2023-02-04T21:16:03;98861.69;;;4.40;100.00
13594;BME280;6449;47.666;9.160;2023-02-04T21:21:15;98862.63;;;4.38;100.00
13594;BME280;6449;47.666;9.160;2023-02-04T21:26:08;98865.22;;;4.36;100.00
13594;BME280;6449;47.666;9.160;2023-02-04T21:31:03;98868.59;;;4.41;100.00
13594;BME280;6449;47.666;9.160;2023-02-04T21:35:57;98877.38;;;4.36;100.00
13594;BME280;6449;47.666;9.160;2023-02-04T21:41:18;98879.44;;;4.18;100.00
13594;BME280;6449;47.666;9.160;2023-02-04T21:46:15;98883.81;;;4.15;100.00
13594;BME280;6449;47.666;9.160;2023-02-04T21:51:10;98882.13;;;4.12;100.00
13594;BME280;6449;47.666;9.160;2023-02-04T21:56:05;98886.28;;;4.23;100.00
13594;BME280;6449;47.666;9.160;2023-02-04T22:00:59;98899.19;;;4.26;100.00
13594;BME280;6449;47.666;9.160;2023-02-04T22:05:55;98898.47;;;4.17;100.00
13594;BME280;6449;47.666;9.160;2023-02-04T22:10:49;98898.59;;;4.10;100.00
13594;BME280;6449;47.666;9.160;2023-02-04T22:15:44;98894.81;;;4.29;100.00
13594;BME280;6449;47.666;9.160;2023-02-04T22:20:38;98898.44;;;4.19;100.00
13594;BME280;6449;47.666;9.160;2023-02-04T22:25:33;98907.47;;;3.98;100.00
13594;BME280;6449;47.666;9.160;2023-02-04T22:30:27;98909.31;;;3.91;100.00
13594;BME280;6449;47.666;9.160;2023-02-04T22:35:23;98906.38;;;4.10;100.00
13594;BME280;6449;47.666;9.160;2023-02-04T22:40:19;98907.16;;;4.16;100.00
13594;BME280;6449;47.666;9.160;2023-02-04T22:45:13;98913.56;;;3.96;100.00
13594;BME280;6449;47.666;9.160;2023-02-04T22:50:09;98909.47;;;3.82;100.00
13594;BME280;6449;47.666;9.160;2023-02-04T22:55:04;98919.22;;;3.66;100.00
13594;BME280;6449;47.666;9.160;2023-02-04T22:59:57;98920.34;;;3.52;100.00
13594;BME280;6449;47.666;9.160;2023-02-04T23:04:52;98911.50;;;3.62;100.00
13594;BME280;6449;47.666;9.160;2023-02-04T23:09:46;98911.38;;;3.71;100.00
13594;BME280;6449;47.666;9.160;2023-02-04T23:14:41;98913.47;;;3.48;100.00
13594;BME280;6449;47.666;9.160;2023-02-04T23:19:35;98923.19;;;3.33;100.00
13594;BME280;6449;47.666;9.160;2023-02-04T23:24:31;98914.53;;;3.33;100.00
13594;BME280;6449;47.666;9.160;2023-02-04T23:29:24;98927.81;;;3.11;100.00
13594;BME280;6449;47.666;9.160;2023-02-04T23:34:19;98919.97;;;3.16;100.00
13594;BME280;6449;47.666;9.160;2023-02-04T23:39:12;98918.94;;;3.28;100.00
13594;BME280;6449;47.666;9.160;2023-02-04T23:49:02;98924.44;;;3.03;100.00
13594;BME280;6449;47.666;9.160;2023-02-04T23:53:56;98921.69;;;3.14;100.00
13594;BME280;6449;47.666;9.160;2023-02-04T23:58:51;98923.50;;;3.09;100.00
